Time;durP1;ratioP1;P1;durP2;ratioP2;P2;SDS_P1;SDS_P2;PMS_P1;PMS_P2;Temp;Humidity;BMP_temperature;BMP_pressure;BME280_temperature;BME280_humidity;BME280_pressure;Samples;Min_cycle;Max_cycle;Signal;HPM_P1;HPM_P2
2021/07/28 04:00:50;;;;;;;43.80;19.10;;;;;;;16.02;94.81;99374.97;5087191;28;20382;-66
2021/07/28 04:03:16;;;;;;;34.97;18.08;;;;;;;16.03;95.11;99379.34;5081619;28;20044;-66
2021/07/28 04:05:41;;;;;;;33.25;17.05;;;;;;;16.09;94.99;99376.50;5080204;28;20354;-66
2021/07/28 04:08:06;;;;;;;33.85;17.67;;;;;;;16.04;95.04;99404.97;5080329;28;20025;-66
2021/07/28 04:10:32;;;;;;;31.98;16.05;;;;;;;16.11;95.06;99408.34;5069219;28;20021;-66
2021/07/28 04:12:57;;;;;;;28.25;16.70;;;;;;;16.14;95.03;99434.81;5060198;28;20080;-66
2021/07/28 04:15:22;;;;;;;31.30;15.35;;;;;;;16.14;94.94;99440.97;5060144;28;20316;-66
2021/07/28 04:17:48;;;;;;;26.35;15.27;;;;;;;16.19;95.15;99420.47;5076938;28;20032;-66
2021/07/28 04:20:14;;;;;;;32.25;15.98;;;;;;;16.18;94.62;99468.34;5078457;28;20024;-66
2021/07/28 04:22:40;;;;;;;34.15;15.27;;;;;;;16.21;94.78;99485.06;5080002;28;20021;-66
2021/07/28 04:25:06;;;;;;;32.35;14.13;;;;;;;16.28;94.69;99510.53;5080221;28;20031;-66
2021/07/28 04:27:32;;;;;;;29.00;14.40;;;;;;;16.31;94.49;99507.78;5071497;28;20123;-66
2021/07/28 04:29:58;;;;;;;29.25;14.88;;;;;;;16.33;94.42;99535.19;5060083;28;20021;-65
2021/07/28 04:32:23;;;;;;;28.60;14.55;;;;;;;16.36;94.19;99519.16;5074880;28;20265;-64
2021/07/28 04:34:49;;;;;;;27.25;13.00;;;;;;;16.42;94.27;99503.03;5079815;28;20020;-64
2021/07/28 04:37:15;;;;;;;24.20;13.18;;;;;;;16.44;93.81;99501.25;5079756;28;20028;-64
2021/07/28 04:39:41;;;;;;;25.05;14.48;;;;;;;16.43;94.27;99542.03;5074139;28;20051;-64
2021/07/28 04:42:06;;;;;;;28.38;13.85;;;;;;;16.43;93.78;99552.66;5063967;28;20052;-64
2021/07/28 04:44:32;;;;;;;21.75;12.27;;;;;;;16.46;93.75;99600.38;5063906;28;20017;-64
2021/07/28 04:46:57;;;;;;;28.02;12.63;;;;;;;16.52;93.98;99575.44;5061663;28;20063;-64
2021/07/28 04:49:23;;;;;;;28.17;12.90;;;;;;;16.54;93.91;99611.69;5060408;28;20215;-64
2021/07/28 04:51:48;;;;;;;25.25;14.07;;;;;;;16.61;93.58;99599.97;5060469;28;20029;-64
2021/07/28 04:54:14;;;;;;;26.67;13.30;;;;;;;16.69;93.32;99523.53;5060420;28;20021;-64
2021/07/28 04:56:39;;;;;;;22.27;11.90;;;;;;;16.66;93.13;99502.34;5060365;28;20197;-64
2021/07/28 04:59:04;;;;;;;22.10;12.30;;;;;;;16.66;93.52;99550.22;5060132;28;20041;-64
2021/07/28 05:01:30;;;;;;;27.38;13.55;;;;;;;16.70;93.38;99519.06;5060272;28;20029;-64
2021/07/28 05:03:55;;;;;;;27.40;14.30;;;;;;;16.71;93.42;99505.72;5060189;28;20212;-64
2021/07/28 05:06:21;;;;;;;26.33;11.45;;;;;;;16.75;93.06;99485.25;5060186;28;20063;-64
2021/07/28 05:08:46;;;;;;;25.67;12.75;;;;;;;16.73;92.92;99465.81;5060040;28;20021;-64
2021/07/28 05:11:11;;;;;;;18.48;11.80;;;;;;;16.77;92.84;99467.47;5052343;28;20033;-64
2021/07/28 05:13:37;;;;;;;25.17;12.02;;;;;;;16.79;92.66;99455.88;5046750;28;20338;-64
2021/07/28 05:16:02;;;;;;;22.98;12.98;;;;;;;16.84;92.89;99455.72;5046701;28;20025;-64
2021/07/28 05:18:28;;;;;;;26.55;11.88;;;;;;;16.85;92.66;99463.66;5046602;28;20021;-64
2021/07/28 05:20:53;;;;;;;22.60;12.25;;;;;;;16.88;93.13;99481.28;5046633;28;20025;-64
2021/07/28 05:23:18;;;;;;;24.55;13.00;;;;;;;16.85;92.95;99449.47;5046580;28;20059;-64
2021/07/28 05:25:44;;;;;;;23.00;12.55;;;;;;;16.81;92.47;99438.06;5046580;28;20063;-64
2021/07/28 05:28:09;;;;;;;20.85;10.98;;;;;;;16.89;92.16;99452.00;5046485;28;20022;-64
2021/07/28 05:30:35;;;;;;;24.67;11.50;;;;;;;16.90;92.03;99437.78;5046347;28;20028;-64
2021/07/28 05:33:00;;;;;;;19.08;11.23;;;;;;;16.92;91.43;99429.75;5046363;28;20268;-64
2021/07/28 05:35:26;;;;;;;22.00;10.93;;;;;;;16.91;92.16;99420.91;5046340;28;20072;-64
2021/07/28 05:38:02;;;;;;;24.77;12.00;;;;;;;16.92;92.20;99420.00;5046564;28;20088;-64
2021/07/28 05:40:29;;;;;;;22.45;11.70;;;;;;;16.91;92.01;99412.06;5046298;28;20088;-64
2021/07/28 05:42:54;;;;;;;17.45;10.70;;;;;;;16.93;92.33;99423.53;5046181;28;20021;-64
2021/07/28 05:45:20;;;;;;;23.38;11.07;;;;;;;16.93;92.41;99421.72;5046107;28;20096;-64
2021/07/28 05:47:45;;;;;;;18.58;11.38;;;;;;;16.93;91.49;99411.09;5046172;28;20025;-64
2021/07/28 05:50:14;;;;;;;21.70;11.52;;;;;;;17.01;90.64;99414.38;5046050;28;20358;-64
2021/07/28 05:52:41;;;;;;;19.73;11.73;;;;;;;16.98;91.19;99406.50;5046002;28;20021;-64
2021/07/28 05:55:07;;;;;;;21.02;11.75;;;;;;;16.93;91.44;99404.91;5045972;28;20043;-64
2021/07/28 05:57:33;;;;;;;21.17;11.93;;;;;;;16.92;92.25;99414.66;5045910;28;20061;-64
2021/07/28 05:59:58;;;;;;;18.98;12.68;;;;;;;16.96;92.26;99405.66;5045677;28;20355;-64
2021/07/28 06:02:24;;;;;;;19.02;11.55;;;;;;;16.99;92.15;99410.88;5045760;28;20189;-64
2021/07/28 06:04:49;;;;;;;16.58;10.75;;;;;;;16.98;91.82;99402.94;5045795;28;20056;-64
2021/07/28 06:07:14;;;;;;;15.90;9.30;;;;;;;16.97;92.18;99418.06;5044564;28;20067;-64
2021/07/28 06:09:40;;;;;;;19.02;10.20;;;;;;;16.97;92.14;99407.44;5045614;28;20014;-64
2021/07/28 06:12:07;;;;;;;19.30;10.55;;;;;;;16.95;92.18;99403.94;5045893;28;20209;-64
2021/07/28 06:14:33;;;;;;;22.38;10.00;;;;;;;16.99;92.66;99402.91;5045560;28;20024;-64
2021/07/28 06:16:58;;;;;;;25.10;10.90;;;;;;;16.96;92.49;99397.69;5045588;28;20010;-64
2021/07/28 06:19:23;;;;;;;20.83;9.98;;;;;;;16.95;92.24;99403.94;5045494;28;20024;-64
2021/07/28 06:21:49;;;;;;;17.90;10.68;;;;;;;17.02;92.38;99407.25;5045319;28;20017;-64
2021/07/28 06:24:14;;;;;;;13.65;8.57;;;;;;;17.07;92.68;99397.34;5044823;28;20044;-64
2021/07/28 06:26:40;;;;;;;20.05;11.35;;;;;;;17.18;92.51;99368.56;5045647;28;20036;-64
2021/07/28 06:29:05;;;;;;;18.23;11.68;;;;;;;17.31;92.71;99385.00;5045245;28;20024;-64
2021/07/28 06:31:30;;;;;;;19.42;10.57;;;;;;;17.40;91.55;99380.22;5045246;28;20029;-64
2021/07/28 06:33:56;;;;;;;20.75;10.40;;;;;;;17.45;90.82;99378.31;5045239;28;20089;-64
2021/07/28 06:36:21;;;;;;;19.05;10.57;;;;;;;17.54;90.58;99378.00;5045186;28;20018;-64
2021/07/28 06:38:47;;;;;;;19.23;10.27;;;;;;;17.59;90.23;99369.84;5045302;28;20014;-64
2021/07/28 06:41:12;;;;;;;18.27;10.00;;;;;;;17.60;89.83;99377.78;5045113;28;20022;-64
2021/07/28 06:43:37;;;;;;;18.35;8.65;;;;;;;17.61;88.82;99378.63;5045305;28;20075;-64
2021/07/28 06:46:03;;;;;;;19.25;9.35;;;;;;;17.53;89.29;99362.06;5045014;28;20044;-64
2021/07/28 06:48:28;;;;;;;15.20;9.35;;;;;;;17.54;89.86;99359.34;5044916;28;20018;-64
2021/07/28 06:50:54;;;;;;;16.40;9.63;;;;;;;17.55;88.69;99347.78;5044893;28;20075;-64
2021/07/28 06:53:20;;;;;;;18.65;9.05;;;;;;;17.68;88.13;99366.84;5044853;28;20022;-64
2021/07/28 06:55:45;;;;;;;16.17;9.45;;;;;;;17.70;88.14;99372.97;5044830;28;20021;-64
2021/07/28 06:58:10;;;;;;;18.45;9.57;;;;;;;17.72;88.20;99363.16;5044779;28;20017;-64
2021/07/28 07:00:36;;;;;;;19.42;9.73;;;;;;;17.68;87.42;99354.38;5044602;28;20197;-64
2021/07/28 07:03:01;;;;;;;16.02;8.52;;;;;;;17.74;87.22;99363.94;5044624;28;20028;-64
2021/07/28 07:05:27;;;;;;;15.45;8.88;;;;;;;17.70;87.47;99351.66;5044663;28;20242;-64
2021/07/28 07:07:53;;;;;;;21.90;9.70;;;;;;;17.76;86.78;99356.78;5044598;28;20028;-64
2021/07/28 07:10:20;;;;;;;19.85;9.23;;;;;;;17.88;86.62;99349.19;5044484;28;20021;-64
2021/07/28 07:12:45;;;;;;;17.77;8.93;;;;;;;17.97;86.92;99329.34;5044558;28;20025;-64
2021/07/28 07:15:11;;;;;;;18.15;9.00;;;;;;;18.18;86.21;99333.84;5044461;28;20051;-64
2021/07/28 07:17:36;;;;;;;13.93;8.60;;;;;;;18.34;85.42;99337.66;5044410;28;20017;-64
2021/07/28 07:20:02;;;;;;;14.85;8.73;;;;;;;18.47;84.73;99336.25;5044422;28;20017;-64
2021/07/28 07:22:27;;;;;;;17.73;8.43;;;;;;;18.50;84.87;99325.47;5044357;28;20057;-64
2021/07/28 07:24:53;;;;;;;14.65;8.52;;;;;;;18.78;85.45;99320.75;5044313;28;20044;-64
2021/07/28 07:27:18;;;;;;;14.15;9.23;;;;;;;19.06;83.53;99337.38;5044539;28;20203;-64
2021/07/28 07:29:45;;;;;;;23.92;9.40;;;;;;;19.33;82.71;99322.84;5044177;28;20032;-64
2021/07/28 07:32:10;;;;;;;14.68;7.47;;;;;;;19.53;80.91;99336.22;5044192;28;20324;-64
2021/07/28 07:34:36;;;;;;;18.70;8.73;;;;;;;19.52;81.55;99331.78;5043948;28;20062;-64
2021/07/28 07:37:01;;;;;;;17.95;9.10;;;;;;;19.59;82.61;99327.94;5044167;28;20017;-64
2021/07/28 07:39:27;;;;;;;15.85;8.40;;;;;;;19.75;81.49;99355.69;5044112;28;20050;-64
2021/07/28 07:41:52;;;;;;;14.23;7.70;;;;;;;20.02;79.76;99365.13;5044114;28;20021;-64
2021/07/28 07:44:18;;;;;;;19.20;9.63;;;;;;;20.04;79.67;99349.91;5044082;28;20328;-64
2021/07/28 07:46:43;;;;;;;24.63;9.95;;;;;;;20.00;79.70;99366.13;5044278;28;20025;-64
2021/07/28 07:49:08;;;;;;;16.42;8.27;;;;;;;20.10;79.29;99362.97;5043895;28;20018;-64
2021/07/28 07:51:34;;;;;;;22.35;9.98;;;;;;;20.24;78.86;99363.22;5043989;28;20216;-64
2021/07/28 07:53:59;;;;;;;14.18;9.38;;;;;;;20.17;78.13;99348.41;5043945;28;20017;-64
2021/07/28 07:56:25;;;;;;;16.80;8.80;;;;;;;20.31;78.42;99353.97;5043909;28;20244;-64
2021/07/28 07:58:51;;;;;;;15.50;9.20;;;;;;;20.81;78.27;99360.44;5043740;28;20033;-64
2021/07/28 08:01:16;;;;;;;18.83;8.68;;;;;;;21.07;76.31;99370.75;5043986;28;20026;-64
2021/07/28 08:03:42;;;;;;;24.88;8.63;;;;;;;21.10;76.38;99445.56;5043779;28;20025;-64
2021/07/28 08:06:09;;;;;;;15.27;8.35;;;;;;;21.57;75.62;99167.25;5043798;28;20021;-64
2021/07/28 08:08:35;;;;;;;17.95;8.48;;;;;;;21.80;75.44;99168.69;5043699;28;20044;-64
2021/07/28 08:11:11;;;;;;;15.98;8.88;;;;;;;21.85;73.50;99108.53;5043993;28;20204;-64
2021/07/28 08:13:37;;;;;;;13.45;8.05;;;;;;;21.83;73.54;99050.59;5043791;28;20029;-64
2021/07/28 08:16:14;;;;;;;15.45;8.57;;;;;;;21.75;73.26;99020.69;5043709;28;20025;-64
2021/07/28 08:18:39;;;;;;;17.02;9.10;;;;;;;21.18;74.91;99593.34;5043693;28;20029;-64
2021/07/28 08:21:06;;;;;;;18.45;8.52;;;;;;;21.15;74.67;99336.44;5043697;28;20036;-64
2021/07/28 08:23:32;;;;;;;18.65;8.40;;;;;;;21.11;76.29;99945.31;5043597;28;20021;-64
2021/07/28 08:25:57;;;;;;;18.88;9.75;;;;;;;20.96;77.12;99393.66;5043890;28;20025;-64
2021/07/28 08:28:23;;;;;;;16.33;7.80;;;;;;;21.17;75.95;99424.72;5043605;28;20026;-64
2021/07/28 08:30:48;;;;;;;17.98;8.48;;;;;;;21.46;75.54;99190.22;5043559;28;20025;-64
2021/07/28 08:33:13;;;;;;;20.45;8.30;;;;;;;22.41;73.27;99193.75;5043591;28;20041;-64
2021/07/28 08:35:39;;;;;;;15.50;7.60;;;;;;;22.37;72.20;100608.78;5042447;28;20022;-64
2021/07/28 08:38:06;;;;;;;16.42;7.63;;;;;;;22.27;73.17;99528.94;5043559;28;20041;-64
2021/07/28 08:40:33;;;;;;;16.70;7.63;;;;;;;22.20;72.49;99332.59;5043767;28;20024;-64
2021/07/28 08:43:00;;;;;;;13.60;7.75;;;;;;;21.86;74.24;99264.84;5043512;28;20021;-64
2021/07/28 08:45:25;;;;;;;13.52;7.63;;;;;;;21.85;74.80;99287.22;5043627;28;20052;-64
2021/07/28 08:47:51;;;;;;;16.98;8.63;;;;;;;21.79;75.01;104042.44;5047263;28;20243;-64
2021/07/28 08:50:16;;;;;;;15.95;8.07;;;;;;;22.19;72.93;99726.94;5047240;28;20068;-64
2021/07/28 08:52:42;;;;;;;13.18;8.63;;;;;;;23.22;69.83;99716.19;5047156;28;20033;-64
2021/07/28 08:55:08;;;;;;;19.55;9.55;;;;;;;23.58;68.86;99396.19;5047146;28;20350;-64
2021/07/28 08:57:35;;;;;;;19.23;8.48;;;;;;;23.18;68.60;99177.41;5047009;28;20040;-64
2021/07/28 09:00:01;;;;;;;15.80;8.07;;;;;;;22.86;68.91;99199.09;5046857;28;20100;-64
2021/07/28 09:02:27;;;;;;;14.95;8.15;;;;;;;22.29;70.32;99903.47;5046908;28;20363;-65
2021/07/28 09:04:53;;;;;;;17.98;8.25;;;;;;;22.44;71.14;99609.41;5046919;28;20025;-65
2021/07/28 09:07:21;;;;;;;17.80;8.05;;;;;;;23.16;69.61;99430.94;5046878;28;20032;-65
2021/07/28 09:09:56;;;;;;;16.02;7.80;;;;;;;23.43;68.49;99342.47;5046765;28;20033;-65
2021/07/28 09:12:31;;;;;;;18.13;7.30;;;;;;;23.39;68.24;99244.22;5046872;28;20033;-65
2021/07/28 09:15:01;;;;;;;16.13;7.90;;;;;;;23.81;67.79;100169.22;5046766;28;20026;-65
2021/07/28 09:17:27;;;;;;;14.18;7.35;;;;;;;24.20;67.42;99541.22;5046920;28;20032;-65
2021/07/28 09:19:54;;;;;;;12.10;8.30;;;;;;;24.84;67.88;99401.66;5046671;28;20021;-65
2021/07/28 09:22:21;;;;;;;13.23;7.55;;;;;;;24.72;64.60;99316.31;5046635;28;20036;-65
2021/07/28 09:25:13;;;;;;;15.00;7.60;;;;;;;24.56;65.41;99315.56;5046563;28;20064;-65
2021/07/28 09:27:46;;;;;;;14.10;7.82;;;;;;;23.59;67.19;99285.03;5046566;28;20236;-65
2021/07/28 09:30:15;;;;;;;14.52;8.05;;;;;;;23.23;67.76;99255.91;5046390;28;20021;-65
2021/07/28 09:32:57;;;;;;;13.30;7.63;;;;;;;22.08;70.91;99211.78;5046350;28;20032;-65
2021/07/28 09:35:51;;;;;;;14.65;7.32;;;;;;;21.84;71.59;99207.78;5046397;28;20233;-65
2021/07/28 09:38:43;;;;;;;14.48;7.75;;;;;;;22.01;72.93;99195.16;5054388;28;20100;-65
2021/07/28 09:41:26;;;;;;;15.48;8.20;;;;;;;21.76;72.91;99194.78;5046308;28;20382;-65
2021/07/28 09:43:55;;;;;;;13.52;7.85;;;;;;;21.94;73.36;99198.25;5046180;28;20029;-65
2021/07/28 09:46:32;;;;;;;17.33;7.65;;;;;;;22.64;71.48;99207.56;5046165;28;20366;-65
2021/07/28 09:49:01;;;;;;;14.23;7.70;;;;;;;23.61;67.85;99233.88;5046031;28;20089;-65
2021/07/28 09:51:34;;;;;;;13.23;6.82;;;;;;;24.15;66.10;99225.03;5046077;28;20036;-65
2021/07/28 09:54:02;;;;;;;13.82;7.05;;;;;;;23.60;66.72;99270.63;5046110;28;20300;-65
2021/07/28 09:56:34;;;;;;;15.10;7.72;;;;;;;23.55;68.67;99490.44;5045841;28;20029;-65
2021/07/28 09:59:00;;;;;;;16.83;7.97;;;;;;;23.35;67.63;99308.03;5045791;28;20059;-65
2021/07/28 10:01:27;;;;;;;13.20;7.07;;;;;;;23.05;68.57;99272.22;5045867;28;20021;-65
2021/07/28 10:03:54;;;;;;;15.68;7.60;;;;;;;23.07;71.02;99267.63;5045842;28;20025;-66
2021/07/28 10:06:22;;;;;;;19.15;6.43;;;;;;;23.15;68.37;99262.66;5045816;28;20312;-65
2021/07/28 10:08:51;;;;;;;17.73;7.18;;;;;;;23.59;67.71;99284.16;5045640;28;20055;-65
2021/07/28 10:11:17;;;;;;;12.07;6.45;;;;;;;23.72;66.72;99266.31;5045703;28;20143;-65
2021/07/28 10:13:43;;;;;;;13.18;5.97;;;;;;;23.63;66.13;99243.56;5045655;28;20303;-65
2021/07/28 10:16:09;;;;;;;14.55;5.78;;;;;;;23.38;65.67;99227.22;5045604;28;20017;-65
2021/07/28 10:18:35;;;;;;;10.27;5.28;;;;;;;23.34;65.32;99220.31;5045601;28;20025;-65
2021/07/28 10:21:00;;;;;;;10.30;5.82;;;;;;;23.15;69.23;99215.19;5045518;28;20025;-65
2021/07/28 10:23:27;;;;;;;14.25;6.25;;;;;;;23.48;67.21;99233.78;5045464;28;20025;-65
2021/07/28 10:25:53;;;;;;;10.93;6.00;;;;;;;23.84;66.85;99225.22;5045445;28;20041;-65
2021/07/28 10:28:19;;;;;;;10.43;5.60;;;;;;;24.06;65.62;99516.09;5045517;28;20028;-65
2021/07/28 10:31:10;;;;;;;11.50;5.20;;;;;;;24.74;65.02;99271.28;5045263;28;20028;-65
2021/07/28 10:33:47;;;;;;;10.77;5.18;;;;;;;26.10;61.79;99750.25;5045345;28;20366;-65
2021/07/28 10:36:13;;;;;;;9.23;5.18;;;;;;;25.71;61.93;99310.44;5045262;28;20017;-65
2021/07/28 10:39:00;;;;;;;12.63;5.72;;;;;;;26.36;61.44;99231.06;5045181;28;20315;-65
2021/07/28 10:41:44;;;;;;;11.90;5.05;;;;;;;26.74;62.31;101596.09;5045170;28;20227;-65
2021/07/28 10:44:15;;;;;;;13.15;5.47;;;;;;;27.00;56.82;99506.31;5045082;28;20320;-65
2021/07/28 10:46:52;;;;;;;10.33;4.90;;;;;;;27.23;57.96;99478.47;5045042;28;20032;-65
2021/07/28 10:49:33;;;;;;;13.27;5.25;;;;;;;27.39;56.08;99449.34;5045219;28;20021;-65
2021/07/28 10:51:59;;;;;;;8.25;4.38;;;;;;;27.81;57.30;99343.28;5044927;28;20088;-65
2021/07/28 10:54:52;;;;;;;8.52;4.43;;;;;;;27.55;57.34;100467.06;5044880;28;20377;-65
2021/07/28 10:57:33;;;;;;;12.52;4.40;;;;;;;28.30;54.62;99427.81;5044819;28;20017;-65
2021/07/28 11:00:02;;;;;;;8.70;4.25;;;;;;;27.02;55.47;99323.31;5044635;28;20025;-65
2021/07/28 11:02:56;;;;;;;8.82;4.43;;;;;;;25.81;58.38;99568.63;5044613;28;20362;-65
2021/07/28 11:05:27;;;;;;;8.98;4.35;;;;;;;26.45;57.31;99467.97;5046403;28;20057;-65
2021/07/28 11:07:58;;;;;;;8.90;4.35;;;;;;;26.39;57.25;99282.97;5044527;28;20017;-65
2021/07/28 11:10:24;;;;;;;5.65;4.15;;;;;;;25.43;59.48;99353.78;5044183;28;20017;-65
2021/07/28 11:12:50;;;;;;;13.48;4.85;;;;;;;24.59;63.90;99312.69;5044543;28;20099;-65
2021/07/28 11:15:16;;;;;;;9.23;5.65;;;;;;;23.85;67.79;99315.69;5044476;28;20028;-65
2021/07/28 11:17:43;;;;;;;11.13;5.80;;;;;;;23.38;68.88;99321.25;5044445;28;20025;-65
2021/07/28 11:20:28;;;;;;;9.13;5.28;;;;;;;23.07;68.80;99297.19;5044429;28;20037;-65
2021/07/28 11:23:13;;;;;;;10.63;5.63;;;;;;;23.12;71.07;99290.56;5044432;28;20044;-65
2021/07/28 11:25:38;;;;;;;8.88;5.53;;;;;;;23.06;70.02;99265.88;5044237;28;20017;-65
2021/07/28 11:28:07;;;;;;;14.07;6.20;;;;;;;23.21;70.81;99246.19;5044340;28;20269;-65
2021/07/28 11:30:33;;;;;;;10.13;5.70;;;;;;;23.77;69.75;99274.97;5044169;28;20018;-65
2021/07/28 11:33:15;;;;;;;10.35;5.65;;;;;;;24.79;69.36;99288.03;5044183;28;20032;-65
2021/07/28 11:35:41;;;;;;;9.55;6.18;;;;;;;25.56;67.17;99241.44;5044452;28;20050;-65
2021/07/28 11:38:16;;;;;;;9.50;4.70;;;;;;;25.68;61.30;99236.03;5044134;28;20067;-65
2021/07/28 11:40:46;;;;;;;12.07;5.20;;;;;;;25.70;61.48;99227.81;5044092;28;20048;-65
2021/07/28 11:43:32;;;;;;;12.77;4.32;;;;;;;25.46;61.21;99208.84;5044071;28;20025;-65
2021/07/28 11:46:18;;;;;;;7.80;5.00;;;;;;;25.37;61.98;99187.91;5044027;28;20041;-65
2021/07/28 11:48:46;;;;;;;12.75;4.72;;;;;;;24.12;65.42;99139.13;5043882;28;20041;-65
2021/07/28 11:51:11;;;;;;;9.40;5.50;;;;;;;23.56;67.05;99115.91;5043986;28;20021;-65
2021/07/28 11:53:37;;;;;;;13.90;5.82;;;;;;;23.32;67.73;99109.44;5043931;28;20022;-65
2021/07/28 11:56:07;;;;;;;10.57;5.20;;;;;;;23.45;68.03;99109.50;5043889;28;20128;-65
2021/07/28 11:58:33;;;;;;;10.77;5.45;;;;;;;23.38;68.96;99092.88;5043713;28;20021;-65
2021/07/28 12:01:15;;;;;;;9.20;5.88;;;;;;;23.37;69.29;99085.81;5043952;28;20329;-65
2021/07/28 12:03:57;;;;;;;7.85;5.00;;;;;;;23.73;69.30;99102.22;5043818;28;20220;-65
2021/07/28 12:06:40;;;;;;;10.13;5.13;;;;;;;23.69;70.74;99162.53;5043914;28;20096;-65
2021/07/28 12:09:14;;;;;;;11.52;4.43;;;;;;;23.52;69.49;99143.94;5043762;28;20335;-65
2021/07/28 12:12:15;;;;;;;21.67;5.53;;;;;;;22.93;74.32;99138.69;5043813;28;20049;-65
2021/07/28 12:14:45;;;;;;;10.52;5.40;;;;;;;22.26;75.31;99120.41;5049561;28;20029;-65
2021/07/28 12:17:17;;;;;;;45.13;7.28;;;;;;;21.74;79.58;99144.91;5043759;28;20025;-65
2021/07/28 12:20:00;;;;;;;19.03;6.23;;;;;;;21.18;81.70;99636.19;5043764;28;20308;-65
2021/07/28 12:22:36;;;;;;;17.10;5.93;;;;;;;20.67;83.06;99563.59;5047263;28;20258;-65
2021/07/28 12:25:19;;;;;;;14.00;5.28;;;;;;;20.36;83.50;99509.72;5047709;28;20031;-65
2021/07/28 12:28:01;;;;;;;12.82;4.53;;;;;;;20.18;84.75;99473.13;5047652;28;20025;-65
2021/07/28 12:30:32;;;;;;;12.23;5.40;;;;;;;20.37;85.28;99420.53;5047631;28;20020;-65
2021/07/28 12:33:08;;;;;;;10.90;5.18;;;;;;;20.45;85.98;99413.03;5047691;28;20033;-65
2021/07/28 12:35:49;;;;;;;9.60;5.50;;;;;;;20.88;86.61;99426.09;5047548;28;20089;-65
2021/07/28 12:38:19;;;;;;;11.40;5.50;;;;;;;21.03;85.75;99334.38;5047499;28;20028;-65
2021/07/28 12:40:46;;;;;;;10.00;5.57;;;;;;;21.30;84.65;99290.13;5047360;28;20084;-65
2021/07/28 12:43:12;;;;;;;9.88;5.35;;;;;;;21.61;84.74;99245.66;5047379;28;20030;-65
2021/07/28 12:45:38;;;;;;;9.70;5.32;;;;;;;21.73;82.56;99236.97;5047343;28;20025;-65
2021/07/28 12:48:04;;;;;;;13.88;5.70;;;;;;;22.15;84.85;99253.38;5047255;28;20033;-65
2021/07/28 12:50:29;;;;;;;9.20;4.78;;;;;;;22.53;81.18;99262.81;5047146;28;20324;-65
2021/07/28 12:52:56;;;;;;;8.55;4.63;;;;;;;22.65;82.44;99219.19;5047163;28;20033;-65
2021/07/28 12:55:22;;;;;;;8.82;4.25;;;;;;;22.78;81.41;99214.81;5047181;28;20037;-65
2021/07/28 12:57:47;;;;;;;13.77;5.45;;;;;;;22.61;82.34;99206.88;5047060;28;20063;-65
2021/07/28 13:00:14;;;;;;;8.07;4.30;;;;;;;22.60;79.73;99221.25;5046868;28;20087;-65
2021/07/28 13:02:40;;;;;;;7.45;3.80;;;;;;;22.51;80.95;99194.97;5046978;28;20036;-65
2021/07/28 13:05:14;;;;;;;7.88;3.70;;;;;;;22.68;79.45;99181.41;5046959;28;20025;-65
2021/07/28 13:10:06;;;;;;;5.47;3.33;;;;;;;22.61;78.72;99182.72;5047109;28;20041;-65
2021/07/28 13:12:31;;;;;;;7.28;3.38;;;;;;;22.41;78.31;99676.63;5046839;28;20017;-65
2021/07/28 13:14:56;;;;;;;4.95;2.60;;;;;;;22.42;78.38;99538.84;5046757;28;20021;-65
2021/07/28 13:17:22;;;;;;;5.93;2.72;;;;;;;22.25;77.79;99472.69;5046734;28;20313;-65
2021/07/28 13:19:47;;;;;;;5.45;2.95;;;;;;;22.30;79.91;99492.09;5046698;28;20041;-65
2021/07/28 13:22:13;;;;;;;4.65;3.00;;;;;;;22.30;79.53;99421.50;5046636;28;20017;-65
2021/07/28 13:24:38;;;;;;;6.03;3.22;;;;;;;22.50;80.07;99359.59;5046579;28;20097;-65
2021/07/28 13:27:03;;;;;;;7.35;2.83;;;;;;;22.47;75.70;99330.22;5046559;28;20017;-65
2021/07/28 13:29:29;;;;;;;7.68;2.95;;;;;;;22.55;75.77;99102.59;5046427;28;20264;-65
2021/07/28 13:31:54;;;;;;;5.88;3.13;;;;;;;22.63;75.81;99097.63;5046032;28;20051;-65
2021/07/28 13:34:19;;;;;;;5.07;2.78;;;;;;;22.72;72.96;99290.31;5046414;28;20216;-65
2021/07/28 13:36:45;;;;;;;5.43;2.83;;;;;;;22.90;75.67;99606.94;5046386;28;20085;-65
2021/07/28 13:39:10;;;;;;;4.30;2.67;;;;;;;22.96;72.66;99520.66;5046357;28;20079;-65
2021/07/28 13:41:35;;;;;;;5.18;2.92;;;;;;;22.98;73.91;99442.72;5046301;28;20021;-65
2021/07/28 13:44:01;;;;;;;5.43;2.92;;;;;;;23.00;74.10;99400.53;5046255;28;20216;-65
2021/07/28 13:46:29;;;;;;;5.78;2.80;;;;;;;22.40;74.95;99293.94;5046182;28;20255;-65
2021/07/28 13:48:55;;;;;;;8.02;3.65;;;;;;;21.72;76.94;99272.72;5046089;28;20092;-65
2021/07/28 13:51:21;;;;;;;7.57;3.90;;;;;;;21.17;78.06;99272.97;5046118;28;20032;-65
2021/07/28 13:53:46;;;;;;;7.50;4.20;;;;;;;20.72;80.63;99277.06;5046056;28;20027;-65
2021/07/28 13:56:11;;;;;;;10.63;4.15;;;;;;;20.35;81.72;99259.28;5046036;28;20092;-65
2021/07/28 13:58:37;;;;;;;8.73;4.20;;;;;;;20.31;82.74;99260.41;5046018;28;20028;-65
2021/07/28 14:01:02;;;;;;;8.40;4.60;;;;;;;20.24;83.55;99236.69;5046008;28;20017;-65
2021/07/28 14:03:28;;;;;;;7.70;4.70;;;;;;;20.13;84.56;99239.91;5045868;28;20030;-65
2021/07/28 14:05:54;;;;;;;9.50;4.60;;;;;;;20.10;85.24;99256.06;5045888;28;20319;-65
2021/07/28 14:08:20;;;;;;;15.93;4.80;;;;;;;20.16;84.40;99261.16;5046054;28;20033;-65
2021/07/28 14:10:45;;;;;;;7.20;4.22;;;;;;;20.10;83.73;99277.44;5045663;28;20041;-65
2021/07/28 14:13:12;;;;;;;8.38;4.65;;;;;;;20.12;85.12;99291.63;5045716;28;20021;-65
2021/07/28 14:15:39;;;;;;;11.98;5.65;;;;;;;20.07;86.32;99304.31;5045669;28;20083;-65
2021/07/28 14:18:04;;;;;;;10.85;4.97;;;;;;;19.90;86.68;99301.53;5045571;28;20255;-65
2021/07/28 14:20:30;;;;;;;11.52;6.05;;;;;;;19.90;86.82;99279.31;5045576;28;20018;-65
2021/07/28 14:22:55;;;;;;;11.50;5.93;;;;;;;19.95;87.83;99318.25;5045493;28;20028;-65
2021/07/28 14:25:21;;;;;;;11.05;5.63;;;;;;;19.91;87.59;99287.28;5045502;28;20316;-65
2021/07/28 14:27:46;;;;;;;12.18;5.40;;;;;;;20.07;87.79;99245.53;5045369;28;20021;-65
2021/07/28 14:30:12;;;;;;;10.38;5.80;;;;;;;20.24;86.87;99242.94;5045310;28;20017;-65
2021/07/28 14:32:37;;;;;;;12.52;6.80;;;;;;;20.53;89.12;99228.97;5045322;28;20033;-65
2021/07/28 14:35:03;;;;;;;12.85;6.43;;;;;;;20.73;87.68;99755.94;5045529;28;20021;-65
2021/07/28 14:37:29;;;;;;;13.00;5.22;;;;;;;20.82;85.88;99546.81;5045282;28;20026;-65
2021/07/28 14:39:54;;;;;;;12.15;5.90;;;;;;;20.92;86.54;99473.19;5045151;28;20013;-65
2021/07/28 14:42:20;;;;;;;10.05;5.53;;;;;;;21.02;85.34;99281.81;5045126;28;20047;-65
2021/07/28 14:44:45;;;;;;;10.15;5.28;;;;;;;21.14;86.29;102961.66;5044279;28;20043;-65
2021/07/28 14:47:11;;;;;;;13.75;5.60;;;;;;;21.24;87.57;99330.59;5045073;28;20212;-65
2021/07/28 14:49:36;;;;;;;12.68;5.28;;;;;;;21.30;86.19;99303.50;5044886;28;20021;-65
2021/07/28 14:52:02;;;;;;;12.23;4.90;;;;;;;21.21;85.02;99336.16;5045226;28;20021;-65
2021/07/28 14:54:27;;;;;;;8.63;4.60;;;;;;;21.22;85.96;99303.06;5044922;28;20212;-65
2021/07/28 14:56:53;;;;;;;15.57;5.82;;;;;;;21.23;87.16;99280.69;5045152;28;20052;-65
2021/07/28 14:59:18;;;;;;;9.73;4.38;;;;;;;21.21;87.33;99258.50;5044649;28;20138;-65
2021/07/28 15:01:45;;;;;;;9.77;4.03;;;;;;;21.28;84.12;99241.16;5044700;28;20096;-65
2021/07/28 15:04:10;;;;;;;6.57;4.25;;;;;;;21.26;85.63;99161.81;5044789;28;20025;-65
2021/07/28 15:06:36;;;;;;;4.72;3.17;;;;;;;21.18;81.63;99131.94;5044738;28;20088;-65
2021/07/28 15:09:01;;;;;;;6.43;3.05;;;;;;;21.09;81.85;99111.88;5044574;28;20021;-65
2021/07/28 15:11:27;;;;;;;6.88;2.70;;;;;;;21.13;82.24;98968.88;5044577;28;20090;-65
2021/07/28 15:13:52;;;;;;;5.88;3.25;;;;;;;21.16;84.67;98898.25;5044578;28;20021;-65
2021/07/28 15:16:18;;;;;;;6.00;3.15;;;;;;;21.21;81.64;98864.91;5044533;28;20390;-65
2021/07/28 15:19:08;;;;;;;6.63;3.58;;;;;;;21.18;81.54;98913.28;5044448;28;20025;-65
2021/07/28 15:21:35;;;;;;;5.18;3.30;;;;;;;21.21;82.70;98915.78;5046790;28;20349;-65
2021/07/28 15:24:01;;;;;;;10.45;3.35;;;;;;;21.21;81.89;98929.16;5044386;28;20190;-65
2021/07/28 15:26:26;;;;;;;10.40;3.90;;;;;;;21.23;83.08;98905.81;5044384;28;20031;-65
2021/07/28 15:28:51;;;;;;;7.18;3.58;;;;;;;21.15;80.69;98817.09;5044276;28;20055;-65
2021/07/28 15:31:17;;;;;;;10.48;4.05;;;;;;;21.18;82.58;100144.09;5044276;28;20247;-65